Time;durP1;ratioP1;P1;durP2;ratioP2;P2;SDS_P1;SDS_P2;PMS_P1;PMS_P2;Temp;Humidity;BMP_temperature;BMP_pressure;BME280_temperature;BME280_humidity;BME280_pressure;Samples;Min_cycle;Max_cycle;Signal;HPM_P1;HPM_P2
2021/06/14 00:01:25;;;;;;;5.00;2.80;;;;;;;20.27;27.13;102001.19;6160674;23;20010;-67
2021/06/14 00:04:15;;;;;;;4.28;2.45;;;;;;;20.24;26.67;102005.22;6159458;23;20021;-67
2021/06/14 00:07:04;;;;;;;4.88;2.63;;;;;;;20.21;26.67;102001.88;6158736;23;20016;-67
2021/06/14 00:09:52;;;;;;;4.15;2.50;;;;;;;20.17;26.57;102004.09;6160213;23;20045;-68
2021/06/14 00:12:42;;;;;;;4.20;2.50;;;;;;;20.15;26.55;102008.97;6161671;23;20114;-68
2021/06/14 00:15:31;;;;;;;4.40;2.42;;;;;;;20.10;27.35;101994.69;6163096;23;20025;-68
2021/06/14 00:18:22;;;;;;;4.32;2.58;;;;;;;20.09;26.74;101992.09;6158744;23;20285;-67
2021/06/14 00:21:13;;;;;;;4.72;2.65;;;;;;;20.07;27.20;101996.94;6162156;23;20111;-68
2021/06/14 00:24:02;;;;;;;5.78;2.63;;;;;;;20.01;27.15;101992.06;6163081;23;20045;-67
2021/06/14 00:26:51;;;;;;;4.28;2.30;;;;;;;19.99;26.62;101994.13;6163056;23;20025;-68
2021/06/14 00:29:39;;;;;;;3.92;2.22;;;;;;;19.95;27.16;101985.25;6161371;23;20045;-68
2021/06/14 00:32:28;;;;;;;5.13;2.45;;;;;;;19.92;27.13;101977.28;6162368;23;20245;-68
2021/06/14 00:35:16;;;;;;;4.30;2.50;;;;;;;19.89;27.58;101980.38;6157910;23;20037;-68
2021/06/14 00:38:09;;;;;;;4.95;2.70;;;;;;;19.90;27.49;101976.56;6161448;23;20049;-68
2021/06/14 00:40:58;;;;;;;4.30;2.53;;;;;;;19.83;27.47;101968.03;6158399;23;20025;-67
2021/06/14 00:43:47;;;;;;;3.95;2.30;;;;;;;19.81;27.64;101975.66;6160113;23;20045;-68
2021/06/14 00:46:35;;;;;;;4.97;2.83;;;;;;;19.77;27.29;101965.03;6157685;23;20675;-68
2021/06/14 00:49:24;;;;;;;4.90;2.42;;;;;;;19.75;27.04;101962.44;6158674;23;20100;-68
2021/06/14 00:52:12;;;;;;;5.85;2.78;;;;;;;19.71;27.37;101963.78;6158970;23;20036;-68
2021/06/14 00:55:03;;;;;;;5.10;2.55;;;;;;;19.71;27.61;101957.38;6162311;23;20247;-68
2021/06/14 00:57:52;;;;;;;5.22;2.60;;;;;;;19.66;27.19;101963.44;6161926;23;20052;-68
2021/06/14 01:00:41;;;;;;;4.47;2.33;;;;;;;19.65;27.66;101956.13;6189753;23;20008;-67
2021/06/14 01:03:31;;;;;;;4.20;2.78;;;;;;;19.62;27.09;101955.59;6167913;23;20119;-68
2021/06/14 01:06:19;;;;;;;5.63;2.53;;;;;;;19.59;27.48;101959.59;6188873;23;20269;-67
2021/06/14 01:09:09;;;;;;;6.28;2.97;;;;;;;19.56;27.30;101946.03;6188308;23;20005;-68
2021/06/14 01:12:07;;;;;;;5.05;2.45;;;;;;;19.56;28.29;101946.91;6189071;23;20442;-68
2021/06/14 01:15:03;;;;;;;5.05;2.78;;;;;;;19.53;27.83;101941.66;6168298;23;20376;-67
2021/06/14 01:17:59;;;;;;;4.65;2.38;;;;;;;19.51;28.21;101940.94;6191110;23;20009;-68
2021/06/14 01:20:59;;;;;;;4.55;2.45;;;;;;;19.47;28.17;101933.97;6167088;23;20025;-68
2021/06/14 01:24:06;;;;;;;5.30;2.30;;;;;;;19.45;28.02;101938.81;6190911;23;20013;-67
2021/06/14 01:27:04;;;;;;;5.03;2.40;;;;;;;19.42;27.67;101941.06;6190274;23;20025;-68
2021/06/14 01:30:00;;;;;;;5.05;2.30;;;;;;;19.38;28.20;101934.09;6171081;23;20016;-68
2021/06/14 01:32:49;;;;;;;5.07;2.63;;;;;;;19.34;27.78;101929.91;6168478;23;20013;-68
2021/06/14 01:35:46;;;;;;;5.30;2.90;;;;;;;19.31;28.74;101924.69;6167967;23;20060;-68
2021/06/14 01:38:35;;;;;;;4.60;2.63;;;;;;;19.24;27.91;101923.59;6191039;23;20068;-68
2021/06/14 01:41:26;;;;;;;3.70;2.20;;;;;;;19.24;28.35;101918.91;6191238;23;20033;-68
2021/06/14 01:44:31;;;;;;;4.85;2.25;;;;;;;19.19;28.25;101927.72;6193825;23;20341;-67
2021/06/14 01:47:21;;;;;;;5.40;2.30;;;;;;;19.15;28.48;101912.44;6168864;23;20305;-68
2021/06/14 01:50:12;;;;;;;4.40;2.63;;;;;;;19.12;28.02;101912.75;6167673;23;20004;-68
2021/06/14 01:53:02;;;;;;;4.60;2.63;;;;;;;19.08;28.65;101905.81;6171294;23;20022;-68
2021/06/14 01:55:52;;;;;;;5.50;2.50;;;;;;;19.07;28.61;101908.75;6168730;23;20017;-68
2021/06/14 01:58:44;;;;;;;3.92;2.40;;;;;;;19.05;28.64;101900.59;6192793;23;20013;-68
2021/06/14 02:01:47;;;;;;;4.00;2.42;;;;;;;19.00;28.60;101903.00;6169654;23;20466;-68
2021/06/14 02:04:44;;;;;;;3.92;2.40;;;;;;;18.97;28.18;101900.53;6168073;23;20021;-68
2021/06/14 02:07:42;;;;;;;4.10;2.40;;;;;;;18.94;28.50;101895.31;6166340;23;20025;-67
2021/06/14 02:10:31;;;;;;;4.93;2.43;;;;;;;18.88;28.46;101895.97;6190933;23;20005;-68
2021/06/14 02:13:21;;;;;;;5.00;2.28;;;;;;;18.88;28.64;101893.19;6167768;23;20032;-68
2021/06/14 02:16:10;;;;;;;3.70;2.30;;;;;;;18.84;28.57;101886.25;6168300;23;20261;-68
2021/06/14 02:18:59;;;;;;;5.43;2.50;;;;;;;18.81;28.77;101887.41;6193372;23;20009;-68
2021/06/14 02:21:50;;;;;;;5.53;2.40;;;;;;;18.80;28.64;101888.44;6192847;23;20005;-68
2021/06/14 02:24:39;;;;;;;3.67;2.10;;;;;;;18.77;28.37;101887.88;6168636;23;20286;-68
2021/06/14 02:27:28;;;;;;;4.82;2.40;;;;;;;18.74;28.99;101888.19;6167135;23;20031;-68
2021/06/14 02:30:21;;;;;;;4.07;2.13;;;;;;;18.73;28.55;101895.63;6191231;23;20005;-67
2021/06/14 02:33:10;;;;;;;4.95;2.28;;;;;;;18.66;28.28;101890.91;6190492;23;20532;-68
2021/06/14 02:36:02;;;;;;;4.07;2.20;;;;;;;18.62;28.92;101886.69;6189624;23;20333;-68
2021/06/14 02:38:54;;;;;;;4.95;2.28;;;;;;;18.64;28.65;101884.66;6168987;23;20035;-68
2021/06/14 02:41:45;;;;;;;4.22;2.40;;;;;;;18.59;28.35;101887.91;6189845;23;20035;-68
2021/06/14 02:44:36;;;;;;;3.95;2.22;;;;;;;18.58;28.81;101879.75;6168273;23;20020;-68
2021/06/14 02:47:27;;;;;;;4.40;2.20;;;;;;;18.55;28.54;101882.81;6167788;23;20009;-68
2021/06/14 02:50:18;;;;;;;5.03;2.40;;;;;;;18.54;28.75;101879.19;6168323;23;20353;-68
2021/06/14 02:53:12;;;;;;;4.43;2.50;;;;;;;18.51;28.89;101878.66;6168941;23;20005;-68
2021/06/14 02:56:05;;;;;;;4.78;2.28;;;;;;;18.49;29.17;101880.72;6170608;23;20016;-68
2021/06/14 02:58:54;;;;;;;3.92;2.10;;;;;;;18.44;28.58;101870.97;6168036;23;20280;-68
2021/06/14 03:01:46;;;;;;;3.90;2.40;;;;;;;18.44;29.07;101876.50;6167828;23;20502;-68
2021/06/14 03:04:36;;;;;;;3.30;2.00;;;;;;;18.38;28.64;101873.50;6190061;23;20381;-68
2021/06/14 03:07:27;;;;;;;3.80;2.30;;;;;;;18.37;28.63;101869.84;6190550;23;20016;-67
2021/06/14 03:10:16;;;;;;;5.63;2.20;;;;;;;18.34;29.18;101874.88;6170547;23;20009;-68
2021/06/14 03:13:07;;;;;;;3.78;2.13;;;;;;;18.32;28.86;101866.72;6190410;23;20345;-68
2021/06/14 03:15:56;;;;;;;5.13;2.28;;;;;;;18.28;28.70;101862.50;6170507;23;20287;-67
2021/06/14 03:18:46;;;;;;;5.13;2.30;;;;;;;18.26;29.40;101860.94;6192322;23;20033;-68
2021/06/14 03:21:37;;;;;;;4.80;2.20;;;;;;;18.25;28.72;101864.72;6190216;23;20009;-68
2021/06/14 03:24:28;;;;;;;5.10;2.00;;;;;;;18.22;29.21;101859.50;6168639;23;20045;-67
2021/06/14 03:27:18;;;;;;;4.88;2.42;;;;;;;18.21;28.95;101861.41;6168310;23;20052;-68
2021/06/14 03:30:10;;;;;;;4.18;2.05;;;;;;;18.21;29.34;101854.97;6168532;23;20021;-68
2021/06/14 03:32:59;;;;;;;3.60;2.03;;;;;;;18.16;29.29;101855.47;6191363;23;20031;-68
2021/06/14 03:35:48;;;;;;;3.45;2.50;;;;;;;18.15;29.19;101852.84;6167728;23;20011;-68
2021/06/14 03:38:37;;;;;;;3.92;2.28;;;;;;;18.13;29.32;101857.66;6168679;23;20013;-68
2021/06/14 03:41:26;;;;;;;4.32;2.10;;;;;;;18.11;29.04;101849.56;6167577;23;20045;-68
2021/06/14 03:44:17;;;;;;;4.18;2.00;;;;;;;18.10;29.13;101845.03;6167139;23;20016;-68
2021/06/14 03:47:06;;;;;;;4.55;2.00;;;;;;;18.09;29.44;101847.97;6189794;23;20354;-68
2021/06/14 03:49:55;;;;;;;3.45;2.13;;;;;;;18.05;29.19;101844.63;6189935;23;20372;-68
2021/06/14 03:52:43;;;;;;;3.97;1.95;;;;;;;18.05;29.21;101847.38;6189546;23;20009;-68
2021/06/14 03:55:32;;;;;;;4.68;2.15;;;;;;;18.03;29.38;101841.13;6190948;23;20017;-68
2021/06/14 03:58:20;;;;;;;4.68;2.00;;;;;;;18.02;29.75;101856.00;6191857;23;20012;-68
2021/06/14 04:01:09;;;;;;;3.92;2.05;;;;;;;18.00;29.47;101855.28;6168004;23;20104;-68
2021/06/14 04:07:35;;;;;;;4.20;2.05;;;;;;;17.96;29.89;101849.16;6050039;23;20096;-68
2021/06/14 04:10:24;;;;;;;5.55;2.25;;;;;;;17.96;29.41;101843.63;6191716;23;20009;-68
2021/06/14 04:13:12;;;;;;;5.05;2.33;;;;;;;17.97;29.72;101850.03;6189522;23;20041;-66
2021/06/14 04:16:01;;;;;;;4.45;2.00;;;;;;;17.97;30.08;101852.81;6190741;23;20344;-67
2021/06/14 04:18:50;;;;;;;4.22;1.88;;;;;;;17.95;29.66;101849.31;6192976;23;20009;-67
2021/06/14 04:21:40;;;;;;;5.22;2.38;;;;;;;17.97;29.92;101848.16;6188749;23;20068;-67
2021/06/14 04:24:28;;;;;;;3.80;2.08;;;;;;;17.95;29.92;101843.78;6189983;23;20005;-67
2021/06/14 04:27:17;;;;;;;3.45;1.98;;;;;;;17.96;29.35;101848.28;6191241;23;20009;-67
2021/06/14 04:30:07;;;;;;;3.30;2.05;;;;;;;17.97;29.96;101844.50;6189550;23;20017;-68
2021/06/14 04:32:56;;;;;;;3.95;2.00;;;;;;;17.96;30.04;101829.78;6189021;23;20077;-67
2021/06/14 04:35:44;;;;;;;4.20;2.13;;;;;;;17.97;30.00;101822.34;6190645;23;20009;-67
2021/06/14 04:38:35;;;;;;;4.63;2.08;;;;;;;18.00;30.18;101822.94;6188953;23;20012;-67
2021/06/14 04:41:23;;;;;;;4.68;2.35;;;;;;;17.99;30.11;101823.94;6191495;23;20447;-67
2021/06/14 04:44:12;;;;;;;3.45;1.90;;;;;;;18.01;30.24;101821.03;6191048;23;20031;-67
2021/06/14 04:47:01;;;;;;;4.72;1.80;;;;;;;18.02;30.31;101823.66;6167232;23;20009;-67
2021/06/14 04:49:49;;;;;;;4.00;2.20;;;;;;;18.02;30.18;101826.41;6188901;23;20102;-67
2021/06/14 04:52:38;;;;;;;4.57;1.90;;;;;;;18.03;30.46;101822.59;6191105;23;20005;-67
2021/06/14 04:55:27;;;;;;;3.83;1.80;;;;;;;18.08;29.99;101824.94;6189977;23;20045;-67
2021/06/14 04:58:16;;;;;;;4.03;2.25;;;;;;;18.07;30.04;101825.97;6181078;23;20021;-67
2021/06/14 05:01:05;;;;;;;3.92;2.30;;;;;;;18.09;30.36;101829.44;6159451;23;20038;-67
2021/06/14 05:03:55;;;;;;;5.45;2.13;;;;;;;18.11;30.20;101832.06;6160176;23;20009;-70
2021/06/14 05:06:43;;;;;;;3.70;1.88;;;;;;;18.14;30.00;101835.38;6159996;23;20300;-69
2021/06/14 05:09:32;;;;;;;4.20;2.25;;;;;;;18.18;30.42;101828.50;6159696;23;20073;-69
2021/06/14 05:12:22;;;;;;;3.72;1.90;;;;;;;18.24;30.30;101840.84;6159164;23;20010;-69
2021/06/14 05:15:11;;;;;;;4.65;1.92;;;;;;;18.29;30.81;101835.66;6161037;23;20099;-69
2021/06/14 05:18:00;;;;;;;3.38;2.17;;;;;;;18.34;30.90;101845.28;6160092;23;20074;-69
2021/06/14 05:20:49;;;;;;;4.90;2.00;;;;;;;18.42;30.66;101838.94;6162103;23;20033;-69
2021/06/14 05:23:37;;;;;;;5.57;1.95;;;;;;;18.50;30.55;101835.34;6162258;23;20047;-69
2021/06/14 05:26:26;;;;;;;3.65;2.08;;;;;;;18.60;30.57;101841.66;6157564;23;20089;-69
2021/06/14 05:29:16;;;;;;;4.22;2.20;;;;;;;18.72;31.07;101838.47;6159165;23;20049;-68
2021/06/14 05:32:05;;;;;;;3.60;1.85;;;;;;;18.80;31.02;101846.88;6160307;23;20511;-69
2021/06/14 05:34:54;;;;;;;4.68;1.98;;;;;;;18.90;30.80;101844.00;6161316;23;20012;-69
2021/06/14 05:37:42;;;;;;;4.05;2.10;;;;;;;19.02;30.37;101852.91;6163014;23;20009;-69
2021/06/14 05:40:32;;;;;;;3.67;2.03;;;;;;;19.13;30.92;101847.94;6164599;23;20022;-70
2021/06/14 05:43:21;;;;;;;3.58;2.08;;;;;;;19.25;30.15;101842.13;6161989;23;20617;-69
2021/06/14 05:46:11;;;;;;;3.40;2.00;;;;;;;19.38;30.36;101842.53;6159057;23;20009;-69
2021/06/14 05:49:02;;;;;;;5.45;2.17;;;;;;;19.46;30.29;101834.22;6159263;23;20266;-71
2021/06/14 05:51:50;;;;;;;6.00;2.28;;;;;;;19.56;30.18;101846.97;6158705;23;20344;-69
2021/06/14 05:54:39;;;;;;;4.57;2.00;;;;;;;19.67;30.34;101844.94;6161976;23;20053;-71
2021/06/14 05:57:27;;;;;;;3.55;1.98;;;;;;;19.76;30.13;101846.72;6162165;23;20018;-71
2021/06/14 06:00:16;;;;;;;3.25;1.80;;;;;;;19.86;30.14;101844.63;6158422;23;20267;-70
2021/06/14 06:03:06;;;;;;;4.20;1.95;;;;;;;19.95;29.52;101849.16;6159024;23;20017;-71
2021/06/14 06:05:55;;;;;;;4.20;2.17;;;;;;;20.02;29.51;101853.00;6137098;23;20017;-71
2021/06/14 06:08:44;;;;;;;4.55;2.00;;;;;;;20.10;29.81;101852.13;6160955;23;20247;-71
2021/06/14 06:11:32;;;;;;;3.85;2.08;;;;;;;20.18;29.41;101852.16;6161333;23;20009;-76
2021/06/14 06:14:22;;;;;;;3.55;1.95;;;;;;;20.24;29.27;101845.97;6160446;23;20017;-76
2021/06/14 06:17:11;;;;;;;3.97;2.00;;;;;;;20.31;29.31;101853.44;6137757;23;20006;-76
2021/06/14 06:20:00;;;;;;;4.10;1.90;;;;;;;20.40;29.27;101854.31;6137385;23;20018;-79
2021/06/14 06:22:49;;;;;;;4.68;2.00;;;;;;;20.45;29.33;101842.66;6162105;23;20292;-79
2021/06/14 06:25:38;;;;;;;4.47;2.33;;;;;;;20.49;29.35;101832.94;6142774;23;20029;-76
2021/06/14 06:28:27;;;;;;;3.30;1.70;;;;;;;20.55;29.34;101835.91;6142068;23;20138;-81
2021/06/14 06:31:15;;;;;;;3.92;1.65;;;;;;;20.59;29.13;101848.38;6141819;23;20006;-76
2021/06/14 06:34:04;;;;;;;4.05;1.85;;;;;;;20.65;28.71;101842.16;6161599;23;20009;-78
2021/06/14 06:36:54;;;;;;;4.55;1.92;;;;;;;20.72;28.59;101836.75;6157485;23;20045;-78
2021/06/14 06:39:48;;;;;;;4.30;1.70;;;;;;;20.78;28.33;101837.94;6162461;23;20021;-79
2021/06/14 06:42:38;;;;;;;3.30;1.85;;;;;;;20.80;28.78;101836.75;6163116;23;20005;-80
2021/06/14 06:45:28;;;;;;;3.13;1.77;;;;;;;20.86;28.55;101838.81;6168372;23;20329;-80
2021/06/14 06:48:16;;;;;;;3.50;1.70;;;;;;;20.91;28.82;101839.16;6166378;23;20021;-79
2021/06/14 06:51:05;;;;;;;3.60;1.70;;;;;;;20.99;28.87;101841.97;6162934;23;20010;-81
2021/06/14 06:57:07;;;;;;;5.00;1.85;;;;;;;21.14;29.03;101852.34;6161842;23;20055;-72
2021/06/14 07:00:02;;;;;;;5.65;2.10;;;;;;;21.24;28.55;101858.59;6190821;23;20037;-68
2021/06/14 07:02:54;;;;;;;3.83;1.70;;;;;;;21.29;28.37;101858.91;6191316;23;20020;-72
2021/06/14 07:05:55;;;;;;;4.22;1.77;;;;;;;21.37;29.04;101864.44;6166736;23;20004;-73
2021/06/14 07:08:45;;;;;;;3.10;1.90;;;;;;;21.43;29.16;101878.50;6190708;23;20012;-72
2021/06/14 07:11:36;;;;;;;3.58;2.03;;;;;;;21.53;28.82;101878.31;6191569;23;20293;-71
2021/06/14 07:14:24;;;;;;;5.38;2.30;;;;;;;21.59;28.69;101857.25;6187605;23;20009;-69
2021/06/14 07:17:13;;;;;;;4.00;1.90;;;;;;;21.67;28.61;101848.84;6191680;23;20342;-70
2021/06/14 07:20:01;;;;;;;3.15;2.03;;;;;;;21.75;29.05;101838.53;6188547;23;20012;-75
2021/06/14 07:22:50;;;;;;;4.10;2.35;;;;;;;21.82;28.96;101839.53;6188858;23;20031;-73
2021/06/14 07:25:38;;;;;;;3.85;1.90;;;;;;;21.92;28.71;101855.16;6191038;23;20019;-69
2021/06/14 07:28:28;;;;;;;3.30;1.80;;;;;;;22.02;28.33;101845.53;6166276;23;20013;-72
2021/06/14 07:31:17;;;;;;;4.65;1.95;;;;;;;22.09;28.57;101840.09;6167468;23;20051;-70
2021/06/14 07:34:08;;;;;;;4.10;2.10;;;;;;;22.16;28.40;101828.00;6190507;23;20005;-73
2021/06/14 07:36:57;;;;;;;3.95;1.85;;;;;;;22.28;28.21;101838.78;6188265;23;20005;-71
2021/06/14 07:39:45;;;;;;;3.42;1.90;;;;;;;22.36;28.55;101834.00;6189224;23;20540;-70
2021/06/14 07:42:34;;;;;;;4.45;2.40;;;;;;;22.45;27.80;101826.44;6188693;23;20005;-71
2021/06/14 07:45:25;;;;;;;3.42;1.92;;;;;;;22.55;28.39;101825.13;6190472;23;20025;-71
2021/06/14 07:48:14;;;;;;;4.25;1.80;;;;;;;22.63;28.07;101815.81;6191188;23;20005;-70
2021/06/14 07:51:04;;;;;;;3.47;1.90;;;;;;;22.73;28.23;101812.72;6171246;23;20376;-70
2021/06/14 07:53:53;;;;;;;3.55;2.03;;;;;;;22.79;28.06;101814.78;6190591;23;20012;-72
2021/06/14 07:56:45;;;;;;;4.00;2.00;;;;;;;22.90;27.91;101811.53;6190168;23;20013;-69
2021/06/14 07:59:34;;;;;;;3.78;1.90;;;;;;;22.97;27.92;101811.66;6192254;23;20019;-71
2021/06/14 08:02:23;;;;;;;5.63;2.40;;;;;;;23.09;28.03;101801.75;6190117;23;20269;-70
2021/06/14 08:05:13;;;;;;;4.70;1.95;;;;;;;23.17;27.64;101784.91;6189373;23;20005;-71
2021/06/14 08:08:01;;;;;;;3.67;1.90;;;;;;;23.26;27.59;101776.25;6188974;23;20012;-70
2021/06/14 08:10:50;;;;;;;3.80;2.05;;;;;;;23.37;27.44;101783.28;6189236;23;20027;-70
2021/06/14 08:13:39;;;;;;;3.45;1.70;;;;;;;23.45;27.41;101777.56;6189974;23;20005;-72
2021/06/14 08:16:44;;;;;;;4.80;1.98;;;;;;;23.57;27.55;101789.13;6189604;23;20133;-72
2021/06/14 08:19:39;;;;;;;3.30;1.80;;;;;;;23.69;27.26;101781.97;6190544;23;20141;-72
2021/06/14 08:22:40;;;;;;;3.90;2.00;;;;;;;23.76;27.39;101771.75;6189906;23;20005;-71
2021/06/14 08:25:28;;;;;;;3.92;2.20;;;;;;;23.85;27.33;101764.97;6189798;23;20057;-71
2021/06/14 08:28:17;;;;;;;4.18;2.00;;;;;;;23.96;26.93;101763.59;6190947;23;20049;-71
2021/06/14 08:31:05;;;;;;;5.18;1.80;;;;;;;24.05;27.16;101771.63;6187870;23;20099;-71
2021/06/14 08:33:54;;;;;;;4.32;1.98;;;;;;;24.15;26.89;101776.03;6166888;23;20035;-72
2021/06/14 08:36:45;;;;;;;3.15;1.98;;;;;;;24.27;26.64;101780.91;6189633;23;20049;-70
2021/06/14 08:39:33;;;;;;;3.67;1.90;;;;;;;24.32;26.91;101786.75;6188906;23;20005;-71
2021/06/14 08:42:25;;;;;;;3.65;1.80;;;;;;;24.40;26.24;101775.44;6190907;23;20011;-73
2021/06/14 08:45:14;;;;;;;3.20;1.80;;;;;;;24.50;26.30;101780.69;6190859;23;20256;-69
2021/06/14 08:48:05;;;;;;;3.67;1.90;;;;;;;24.59;26.22;101779.47;6191518;23;20012;-70
2021/06/14 08:50:54;;;;;;;4.05;2.00;;;;;;;24.65;26.07;101767.50;6189125;23;20033;-70
2021/06/14 08:53:44;;;;;;;3.17;1.83;;;;;;;24.75;25.70;101769.94;6189616;23;20103;-70
2021/06/14 08:56:33;;;;;;;3.25;1.88;;;;;;;24.81;25.94;101764.38;6162460;23;20016;-71
2021/06/14 08:59:22;;;;;;;4.20;2.00;;;;;;;24.89;26.03;101752.16;6164644;23;20324;-70
2021/06/14 09:02:10;;;;;;;3.00;1.90;;;;;;;24.97;25.60;101751.13;6190321;23;20072;-70
2021/06/14 09:04:59;;;;;;;3.60;2.08;;;;;;;25.04;25.82;101752.88;6166043;23;20057;-70
2021/06/14 09:07:48;;;;;;;4.60;2.15;;;;;;;25.12;25.50;101755.53;6187380;23;20020;-70
2021/06/14 09:10:41;;;;;;;3.78;2.10;;;;;;;25.24;24.99;101747.44;6189578;23;20012;-70
2021/06/14 09:13:32;;;;;;;3.55;2.08;;;;;;;25.30;25.15;101751.34;6190066;23;20372;-71
2021/06/14 09:16:21;;;;;;;4.80;1.92;;;;;;;25.35;25.32;101751.59;6190120;23;20027;-70
2021/06/14 09:19:26;;;;;;;5.30;2.13;;;;;;;25.46;25.24;101735.03;6190003;23;20013;-70
2021/06/14 09:22:18;;;;;;;3.63;1.98;;;;;;;25.53;24.91;101744.31;6191398;23;20009;-70
2021/06/14 09:25:09;;;;;;;3.97;2.30;;;;;;;25.59;24.78;101744.56;6190184;23;20005;-70
2021/06/14 09:28:09;;;;;;;3.20;1.90;;;;;;;25.68;24.17;101729.28;6165470;23;20013;-71
2021/06/14 09:30:59;;;;;;;4.57;2.00;;;;;;;25.71;24.97;101724.13;6188540;23;20010;-70
2021/06/14 09:33:48;;;;;;;3.33;2.08;;;;;;;25.78;24.56;101718.50;6189837;23;20039;-69
2021/06/14 09:36:37;;;;;;;2.72;1.77;;;;;;;25.84;24.41;101717.72;6190268;23;20009;-71
2021/06/14 09:39:27;;;;;;;4.20;2.30;;;;;;;25.89;24.10;101701.97;6188556;23;20048;-70
2021/06/14 09:42:18;;;;;;;3.28;1.80;;;;;;;25.97;24.46;101698.09;6189405;23;20373;-70
2021/06/14 09:45:09;;;;;;;3.95;2.20;;;;;;;26.04;24.44;101701.78;6190934;23;20025;-71
2021/06/14 09:47:57;;;;;;;3.78;2.10;;;;;;;26.07;24.22;101701.34;6168867;23;20013;-71
2021/06/14 09:50:48;;;;;;;4.25;2.13;;;;;;;26.16;24.27;101686.03;6167998;23;20009;-70
2021/06/14 09:53:58;;;;;;;3.22;2.05;;;;;;;26.24;23.86;101687.78;6168105;23;20015;-72
2021/06/14 09:56:54;;;;;;;4.32;2.03;;;;;;;26.28;24.10;101684.28;6189835;23;20250;-72
2021/06/14 09:59:44;;;;;;;3.40;1.75;;;;;;;26.32;23.87;101684.75;6191845;23;20021;-71
2021/06/14 10:02:36;;;;;;;3.63;1.90;;;;;;;26.41;23.87;101689.09;6190372;23;20049;-72
2021/06/14 10:05:25;;;;;;;3.63;2.05;;;;;;;26.43;23.81;101683.25;6191286;23;20017;-72
2021/06/14 10:08:14;;;;;;;3.92;2.20;;;;;;;26.50;23.94;101687.78;6189778;23;20075;-72
2021/06/14 10:11:09;;;;;;;4.60;1.92;;;;;;;26.58;23.93;101687.56;6191149;23;20285;-71
2021/06/14 10:14:17;;;;;;;4.68;2.08;;;;;;;26.66;23.71;101698.53;6191978;23;20012;-71
2021/06/14 10:17:36;;;;;;;3.28;1.90;;;;;;;26.72;23.81;101685.56;6170175;23;20045;-71
2021/06/14 10:20:36;;;;;;;3.07;1.90;;;;;;;26.79;23.66;101689.22;6191887;23;20060;-71
2021/06/14 10:23:36;;;;;;;3.53;1.80;;;;;;;26.86;23.86;101687.25;6168275;23;20348;-71
2021/06/14 10:26:26;;;;;;;3.97;1.80;;;;;;;26.93;23.82;101688.13;6190371;23;20009;-72
2021/06/14 10:29:17;;;;;;;3.90;1.90;;;;;;;27.02;23.44;101685.94;6190959;23;20012;-73
2021/06/14 10:32:06;;;;;;;3.78;2.00;;;;;;;27.07;23.10;101674.91;6189996;23;20061;-71
2021/06/14 10:34:58;;;;;;;2.78;1.48;;;;;;;27.16;23.05;101676.41;6168852;23;20269;-72
2021/06/14 10:37:49;;;;;;;4.70;1.92;;;;;;;27.23;23.22;101674.41;6192467;23;20005;-72
2021/06/14 10:40:38;;;;;;;3.65;2.20;;;;;;;27.27;23.03;101670.06;6190474;23;20006;-70
2021/06/14 10:43:28;;;;;;;3.30;1.75;;;;;;;27.35;22.71;101680.16;6191323;23;20483;-71
2021/06/14 10:46:18;;;;;;;3.05;1.80;;;;;;;27.43;22.25;101675.16;6192260;23;20052;-72
2021/06/14 10:49:07;;;;;;;3.30;1.95;;;;;;;27.48;22.29;101666.09;6192856;23;20005;-78
2021/06/14 10:52:02;;;;;;;4.38;2.00;;;;;;;27.58;21.73;101676.84;6190672;23;20042;-75
2021/06/14 10:54:51;;;;;;;3.83;1.90;;;;;;;27.61;22.29;101665.13;6190674;23;20096;-77
2021/06/14 10:57:39;;;;;;;3.65;1.70;;;;;;;27.65;22.05;101672.91;6191202;23;20005;-80
2021/06/14 11:00:33;;;;;;;3.95;2.30;;;;;;;27.73;21.82;101668.97;6190676;23;20020;-77
2021/06/14 11:03:21;;;;;;;3.42;1.90;;;;;;;27.75;21.84;101678.88;6191098;23;20257;-76
2021/06/14 11:06:24;;;;;;;3.15;1.70;;;;;;;27.83;21.17;101674.09;6194475;23;20005;-75
2021/06/14 11:09:15;;;;;;;3.13;1.90;;;;;;;27.86;21.38;101668.84;6189428;23;20039;-75
2021/06/14 11:12:03;;;;;;;3.30;1.88;;;;;;;27.89;21.57;101662.78;6193807;23;20009;-75
2021/06/14 11:14:52;;;;;;;3.05;1.60;;;;;;;27.93;21.72;101657.53;6192994;23;20268;-75
2021/06/14 11:17:41;;;;;;;4.35;1.73;;;;;;;27.98;21.33;101649.31;6190172;23;20357;-75
2021/06/14 11:20:34;;;;;;;3.47;1.77;;;;;;;28.06;21.08;101652.72;6190236;23;20021;-75
2021/06/14 11:23:27;;;;;;;3.60;2.10;;;;;;;28.10;20.73;101651.16;6192357;23;20015;-76
2021/06/14 11:26:28;;;;;;;3.33;1.80;;;;;;;28.16;20.83;101652.22;6191458;23;20005;-74
2021/06/14 11:29:18;;;;;;;2.70;1.70;;;;;;;28.18;20.94;101655.63;6189939;23;20342;-77
2021/06/14 11:32:07;;;;;;;3.92;2.10;;;;;;;28.22;20.76;101647.59;6189747;23;20071;-75
2021/06/14 11:34:59;;;;;;;5.38;2.08;;;;;;;28.28;20.75;101641.03;6192521;23;20045;-73
2021/06/14 11:37:48;;;;;;;;;;;;;;;27.97;21.41;101640.00;6188831;23;20110;-74
2021/06/14 11:40:37;;;;;;;4.45;2.05;;;;;;;28.29;20.75;101643.63;6191037;23;19924;-75
2021/06/14 11:43:27;;;;;;;3.97;2.10;;;;;;;28.36;20.45;101633.16;6192319;23;20009;-76
2021/06/14 11:46:22;;;;;;;3.08;1.80;;;;;;;28.41;20.67;101629.69;6189730;23;20345;-76
2021/06/14 11:49:11;;;;;;;3.75;1.85;;;;;;;28.42;20.65;101637.00;6168810;23;20053;-76
2021/06/14 11:52:01;;;;;;;3.30;2.00;;;;;;;28.48;20.70;101630.47;6191311;23;20064;-78
2021/06/14 11:54:54;;;;;;;3.13;1.80;;;;;;;28.53;20.62;101634.31;6190830;23;20033;-76
2021/06/14 11:57:44;;;;;;;5.75;1.88;;;;;;;28.57;21.04;101625.44;6189947;23;20346;-75
2021/06/14 12:00:36;;;;;;;3.72;1.85;;;;;;;28.64;21.14;101618.63;6191008;23;20024;-75
2021/06/14 12:03:28;;;;;;;4.82;2.10;;;;;;;28.69;20.60;101617.91;6189660;23;20005;-77
2021/06/14 12:06:16;;;;;;;2.80;1.60;;;;;;;28.69;20.77;101607.50;6193109;23;20013;-76
2021/06/14 12:09:09;;;;;;;3.10;1.90;;;;;;;28.79;20.52;101619.09;6170656;23;20008;-78
2021/06/14 12:12:02;;;;;;;3.33;1.90;;;;;;;28.87;20.29;101620.72;6190135;23;20008;-77
2021/06/14 12:14:53;;;;;;;3.03;1.75;;;;;;;28.92;20.53;101604.81;6167323;23;20011;-74
2021/06/14 12:17:48;;;;;;;3.50;1.80;;;;;;;28.99;20.11;101609.50;6189697;23;20330;-75
2021/06/14 12:20:39;;;;;;;3.22;1.70;;;;;;;29.03;20.65;101607.97;6167458;23;20102;-74
2021/06/14 12:23:33;;;;;;;3.17;1.70;;;;;;;29.12;19.82;101607.41;6191777;23;20012;-76
2021/06/14 12:26:22;;;;;;;3.78;1.50;;;;;;;29.14;20.00;101601.56;6168406;23;20459;-76
2021/06/14 12:29:18;;;;;;;2.92;1.55;;;;;;;29.24;19.55;101591.41;6166864;23;20005;-81
2021/06/14 12:32:09;;;;;;;3.42;1.60;;;;;;;29.27;19.65;101592.91;6167844;23;20011;-75
2021/06/14 12:35:00;;;;;;;2.77;1.43;;;;;;;29.32;19.44;101592.16;6168491;23;20045;-76
2021/06/14 12:37:49;;;;;;;2.83;1.70;;;;;;;29.34;19.35;101589.97;6190406;23;20368;-76
2021/06/14 12:40:40;;;;;;;3.45;1.80;;;;;;;29.42;18.88;101593.31;6168168;23;20011;-76
2021/06/14 12:43:32;;;;;;;3.30;1.80;;;;;;;29.48;19.12;101583.06;6192562;23;20025;-78
2021/06/14 12:46:32;;;;;;;3.78;1.73;;;;;;;29.50;19.37;101573.22;6189439;23;20010;-79
2021/06/14 12:49:31;;;;;;;3.00;1.70;;;;;;;29.56;19.04;101575.13;6188440;23;20012;-78
2021/06/14 12:52:24;;;;;;;3.80;1.67;;;;;;;29.58;18.54;101567.28;6191850;23;20008;-79
2021/06/14 12:55:23;;;;;;;4.10;1.70;;;;;;;29.62;18.62;101565.72;6169288;23;20126;-83
2021/06/14 12:58:18;;;;;;;3.92;1.70;;;;;;;29.61;18.95;101565.94;6188532;23;20084;-79
2021/06/14 13:01:09;;;;;;;2.53;1.55;;;;;;;29.61;19.07;101554.66;6168571;23;20037;-79
2021/06/14 13:03:58;;;;;;;3.20;1.63;;;;;;;29.61;18.85;101549.88;6167038;23;20402;-87
2021/06/14 13:06:47;;;;;;;3.15;1.70;;;;;;;29.62;19.09;101545.97;6169251;23;20015;-86
2021/06/14 13:09:45;;;;;;;4.03;1.88;;;;;;;29.69;18.70;101550.63;6167161;23;20028;-83
2021/06/14 13:12:35;;;;;;;3.15;1.90;;;;;;;29.66;18.87;101546.31;6189520;23;20099;-80
2021/06/14 13:15:30;;;;;;;3.67;1.70;;;;;;;29.71;18.52;101531.50;6167753;23;20274;-81
2021/06/14 13:18:20;;;;;;;4.28;1.90;;;;;;;29.72;18.98;101533.25;6192244;23;20008;-83
2021/06/14 13:21:11;;;;;;;3.10;1.70;;;;;;;29.73;18.94;101532.13;6194041;23;20009;-86